createdAt,value
2022-11-28T00:01:01.910Z,99639.31
2022-11-28T00:02:03.994Z,99634.25
2022-11-28T00:03:05.792Z,99630.16
2022-11-28T00:04:08.605Z,99635.56
2022-11-28T00:05:12.120Z,99633.91
2022-11-28T00:06:14.112Z,99635.06
2022-11-28T00:07:16.082Z,99634.75
2022-11-28T00:08:18.409Z,99628.66
2022-11-28T00:09:21.266Z,99624.72
2022-11-28T00:10:23.041Z,99626.53
2022-11-28T00:11:25.052Z,99618.66
2022-11-28T00:12:27.727Z,99626.69
2022-11-28T00:13:29.406Z,99627.16
2022-11-28T00:14:31.104Z,99619.13
2022-11-28T00:15:32.992Z,99633.38
2022-11-28T00:16:35.123Z,99615.81
2022-11-28T00:17:36.780Z,99616.47
2022-11-28T00:18:38.484Z,99621.41
2022-11-28T00:19:40.194Z,99611.53
2022-11-28T00:20:41.886Z,99621.06
2022-11-28T00:21:43.560Z,99621.06
2022-11-28T00:22:45.208Z,99620.09
2022-11-28T00:23:48.829Z,99617.91
2022-11-28T00:24:50.492Z,99620.38
2022-11-28T00:26:00.117Z,99619.41
2022-11-28T00:27:01.853Z,99615.31
2022-11-28T00:28:03.537Z,99616.97
2022-11-28T00:29:06.689Z,99614.50
2022-11-28T00:30:08.936Z,99612.84
2022-11-28T00:31:20.477Z,99617.47
2022-11-28T00:32:22.169Z,99607.44
2022-11-28T00:33:24.321Z,99625.63
2022-11-28T00:34:25.994Z,99616.63
2022-11-28T00:35:27.682Z,99617.91
2022-11-28T00:36:30.103Z,99620.75
2022-11-28T00:37:31.848Z,99618.28
2022-11-28T00:38:33.741Z,99625.50
2022-11-28T00:39:35.435Z,99625.84
2022-11-28T00:40:37.098Z,99617.28
2022-11-28T00:41:38.785Z,99623.38
2022-11-28T00:42:40.488Z,99615.84
2022-11-28T00:43:43.900Z,99618.16
2022-11-28T00:44:45.652Z,99613.75
2022-11-28T00:45:47.367Z,99617.53
2022-11-28T00:46:49.152Z,99614.25
2022-11-28T00:47:50.871Z,99610.81
2022-11-28T00:48:53.087Z,99606.03
2022-11-28T00:49:54.749Z,99612.63
2022-11-28T00:51:04.797Z,99608.84
2022-11-28T00:52:06.657Z,99601.78
2022-11-28T00:53:08.347Z,99596.19
2022-11-28T00:54:10.335Z,99607.31
2022-11-28T00:55:12.007Z,99611.94
2022-11-28T00:56:16.060Z,99605.03
2022-11-28T00:57:17.749Z,99602.38
2022-11-28T00:58:19.431Z,99604.22
2022-11-28T00:59:21.089Z,99602.06
2022-11-28T01:00:22.932Z,99598.81
2022-11-28T01:01:30.587Z,99610.63
2022-11-28T01:02:32.428Z,99607.63
2022-11-28T01:03:34.142Z,99610.09
2022-11-28T01:04:35.832Z,99607.81
2022-11-28T01:05:41.912Z,99604.72
2022-11-28T01:06:46.837Z,99604.72
2022-11-28T01:07:48.536Z,99609.78
2022-11-28T01:08:51.019Z,99606.38
2022-11-28T01:09:52.658Z,99608.31
2022-11-28T01:10:54.349Z,99609.81
2022-11-28T01:11:56.653Z,99610.63
2022-11-28T01:12:58.311Z,99614.25
2022-11-28T01:14:01.984Z,99612.44
2022-11-28T01:15:05.375Z,99608.81
2022-11-28T01:16:08.233Z,99612.94
2022-11-28T01:17:09.967Z,99604.25
2022-11-28T01:18:11.752Z,99606.22
2022-11-28T01:19:14.031Z,99611.28
2022-11-28T01:20:15.808Z,99609.16
2022-11-28T01:21:18.094Z,99604.88
2022-11-28T01:22:19.799Z,99607.66
2022-11-28T01:23:21.677Z,99614.41
2022-11-28T01:24:23.370Z,99615.72
2022-11-28T01:25:25.422Z,99607.19
2022-11-28T01:26:29.880Z,99614.09
2022-11-28T01:27:31.568Z,99616.53
2022-11-28T01:28:34.197Z,99596.53
2022-11-28T01:29:35.844Z,99612.28
2022-11-28T01:30:37.500Z,99612.28
2022-11-28T01:31:40.996Z,99613.44
2022-11-28T01:32:42.832Z,99608.81
2022-11-28T01:33:44.630Z,99608.81
2022-11-28T01:34:46.270Z,99612.94
2022-11-28T01:35:58.267Z,99596.03
2022-11-28T01:37:00.357Z,99613.59
2022-11-28T01:38:02.099Z,99606.88
2022-11-28T01:39:03.971Z,99602.44
2022-11-28T01:40:06.453Z,99613.75
2022-11-28T01:41:09.362Z,99610.16
2022-11-28T01:42:17.578Z,99603.91
2022-11-28T01:43:19.704Z,99602.44
2022-11-28T01:44:21.305Z,99608.00
2022-11-28T01:45:31.717Z,99602.09
2022-11-28T01:46:35.013Z,99605.88
2022-11-28T01:47:36.906Z,99600.31
2022-11-28T01:48:41.527Z,99601.16
2022-11-28T01:49:45.527Z,99591.28
2022-11-28T01:50:50.181Z,99598.50
2022-11-28T01:51:56.252Z,99591.28
2022-11-28T01:53:01.831Z,99592.28
2022-11-28T01:54:04.076Z,99591.28
2022-11-28T01:55:07.181Z,99588.00
2022-11-28T01:56:23.220Z,99590.31
2022-11-28T01:57:26.863Z,99595.06
2022-11-28T01:58:30.588Z,99586.06
2022-11-28T01:59:37.616Z,99590.31
2022-11-28T02:00:39.400Z,99586.03
2022-11-28T02:01:41.404Z,99576.53
2022-11-28T02:03:03.565Z,99590.94
2022-11-28T02:04:05.538Z,99584.56
2022-11-28T02:05:07.918Z,99587.66
2022-11-28T02:06:11.415Z,99586.69
2022-11-28T02:07:14.144Z,99577.50
2022-11-28T02:08:16.153Z,99593.06
2022-11-28T02:09:17.869Z,99585.88
2022-11-28T02:10:27.027Z,99581.41
2022-11-28T02:11:53.535Z,99590.28
2022-11-28T02:13:22.866Z,99591.44
2022-11-28T02:14:38.393Z,99583.88
2022-11-28T02:16:22.262Z,99581.41
2022-11-28T02:18:02.396Z,99576.84
2022-11-28T02:19:35.928Z,99577.81
2022-11-28T02:21:10.287Z,99561.09
2022-11-28T02:22:14.463Z,99577.19
2022-11-28T02:23:19.601Z,99582.91
2022-11-28T02:24:54.757Z,99582.06
2022-11-28T02:26:24.223Z,99577.63
2022-11-28T02:27:53.755Z,99577.47
2022-11-28T02:29:36.051Z,99575.00
2022-11-28T02:30:51.565Z,99580.09
2022-11-28T02:32:09.882Z,99579.94
2022-11-28T02:33:19.598Z,99576.66
2022-11-28T02:34:32.967Z,99573.56
2022-11-28T02:35:49.937Z,99581.75
2022-11-28T02:36:59.442Z,99578.47
2022-11-28T02:38:19.174Z,99572.91
2022-11-28T02:39:35.979Z,99563.88
2022-11-28T02:41:23.680Z,99569.00
2022-11-28T02:42:45.559Z,99580.47
2022-11-28T02:43:59.269Z,99574.56
2022-11-28T02:45:21.226Z,99572.59
2022-11-28T02:46:28.366Z,99581.47
2022-11-28T02:47:36.594Z,99575.88
2022-11-28T02:48:53.411Z,99580.16
2022-11-28T02:50:10.821Z,99575.38
2022-11-28T02:51:18.228Z,99575.56
2022-11-28T02:52:29.513Z,99576.84
2022-11-28T02:53:32.988Z,99580.13
2022-11-28T02:54:36.877Z,99574.56
2022-11-28T02:55:43.870Z,99569.97
2022-11-28T02:56:49.939Z,99580.78
2022-11-28T02:57:54.710Z,99580.28
2022-11-28T02:58:56.452Z,99573.22
2022-11-28T02:59:58.148Z,99582.25
2022-11-28T03:01:00.573Z,99582.09
2022-11-28T03:02:03.283Z,99578.44
2022-11-28T03:03:20.229Z,99576.97
2022-11-28T03:04:36.927Z,99577.13
2022-11-28T03:05:44.533Z,99577.63
2022-11-28T03:07:08.195Z,99582.38
2022-11-28T03:08:34.365Z,99580.38
2022-11-28T03:09:47.603Z,99577.59
2022-11-28T03:10:59.782Z,99576.78
2022-11-28T03:12:13.459Z,99568.59
2022-11-28T03:13:31.741Z,99578.94
2022-11-28T03:14:48.432Z,99578.16
2022-11-28T03:15:59.220Z,99574.22
2022-11-28T03:17:11.412Z,99576.47
2022-11-28T03:18:20.572Z,99577.13
2022-11-28T03:19:29.573Z,99576.47
2022-11-28T03:20:50.720Z,99565.66
2022-11-28T03:22:20.506Z,99573.53
2022-11-28T03:23:36.117Z,99571.56
2022-11-28T03:24:44.670Z,99571.56
2022-11-28T03:26:13.316Z,99572.53
2022-11-28T03:27:25.621Z,99578.78
2022-11-28T03:28:39.263Z,99576.81
2022-11-28T03:29:51.189Z,99563.06
2022-11-28T03:31:12.256Z,99577.13
2022-11-28T03:32:23.453Z,99576.31
2022-11-28T03:33:29.833Z,99569.59
2022-11-28T03:34:39.754Z,99573.53
2022-11-28T03:35:48.521Z,99572.22
2022-11-28T03:37:11.328Z,99568.31
2022-11-28T03:38:27.451Z,99571.88
2022-11-28T03:39:35.065Z,99571.22
2022-11-28T03:40:42.982Z,99576.16
2022-11-28T03:41:59.194Z,99573.69
2022-11-28T03:43:05.596Z,99568.09
2022-11-28T03:44:13.715Z,99576.00
2022-11-28T03:45:24.003Z,99576.00
2022-11-28T03:46:33.132Z,99559.91
2022-11-28T03:47:43.742Z,99571.88
2022-11-28T03:48:48.907Z,99580.59
2022-11-28T03:49:57.068Z,99573.84
2022-11-28T03:51:14.636Z,99579.09
2022-11-28T03:52:27.881Z,99584.03
2022-11-28T03:53:46.886Z,99573.19
2022-11-28T03:55:01.469Z,99578.44
2022-11-28T03:56:14.645Z,99581.06
2022-11-28T03:57:39.967Z,99579.09
2022-11-28T03:59:04.168Z,99575.66
2022-11-28T04:00:08.136Z,99573.56
2022-11-28T04:01:27.005Z,99577.13
2022-11-28T04:02:51.323Z,99580.75
2022-11-28T04:04:01.356Z,99573.84
2022-11-28T04:05:17.396Z,99580.75
2022-11-28T04:06:22.990Z,99582.22
2022-11-28T04:07:33.462Z,99580.41
2022-11-28T04:08:46.026Z,99579.91
2022-11-28T04:10:15.795Z,99586.81
2022-11-28T04:11:23.378Z,99581.56
2022-11-28T04:12:48.239Z,99587.97
2022-11-28T04:14:25.310Z,99579.91
2022-11-28T04:15:35.889Z,99585.00
2022-11-28T04:16:58.275Z,99591.09
2022-11-28T04:18:14.937Z,99583.53
2022-11-28T04:19:31.735Z,99596.19
2022-11-28T04:20:40.839Z,99590.25
2022-11-28T04:22:00.609Z,99601.25
2022-11-28T04:23:09.755Z,99595.69
2022-11-28T04:24:18.011Z,99594.84
2022-11-28T04:25:22.226Z,99598.47
2022-11-28T04:26:30.507Z,99596.81
2022-11-28T04:27:40.063Z,99594.03
2022-11-28T04:28:44.048Z,99588.66
2022-11-28T04:29:53.750Z,99585.38
2022-11-28T04:30:57.863Z,99597.47
2022-11-28T04:32:01.373Z,99591.94
2022-11-28T04:33:07.511Z,99591.78
2022-11-28T04:34:11.800Z,99596.50
2022-11-28T04:35:22.115Z,99594.84
2022-11-28T04:36:26.966Z,99588.94
2022-11-28T04:37:31.690Z,99604.38
2022-11-28T04:38:34.595Z,99600.28
2022-11-28T04:39:37.405Z,99610.91
2022-11-28T04:41:00.421Z,99599.28
2022-11-28T04:42:19.296Z,99605.53
2022-11-28T04:43:27.054Z,99588.28
2022-11-28T04:44:51.530Z,99594.69
2022-11-28T04:46:06.887Z,99589.91
2022-11-28T04:47:10.025Z,99586.31
2022-11-28T04:48:11.756Z,99605.50
2022-11-28T04:49:14.327Z,99599.44
2022-11-28T04:50:16.331Z,99605.50
2022-11-28T04:51:32.923Z,99605.34
2022-11-28T04:52:50.957Z,99606.16
2022-11-28T04:54:04.809Z,99601.72
2022-11-28T04:55:16.959Z,99602.53
2022-11-28T04:56:24.495Z,99602.53
2022-11-28T04:57:54.193Z,99607.47
2022-11-28T04:59:00.581Z,99605.66
2022-11-28T05:00:07.228Z,99609.28
2022-11-28T05:01:12.521Z,99610.91
2022-11-28T05:02:16.347Z,99610.25
2022-11-28T05:03:18.599Z,99610.44
2022-11-28T05:04:20.283Z,99617.47
2022-11-28T05:05:25.383Z,99599.59
2022-11-28T05:06:35.281Z,99616.66
2022-11-28T05:07:36.969Z,99615.84
2022-11-28T05:08:38.738Z,99608.44
2022-11-28T05:09:40.481Z,99622.75
2022-11-28T05:10:42.584Z,99613.38
2022-11-28T05:11:44.424Z,99614.38
2022-11-28T05:12:46.352Z,99608.81
2022-11-28T05:13:48.067Z,99620.59
2022-11-28T05:14:49.711Z,99610.44
2022-11-28T05:15:52.406Z,99609.97
2022-11-28T05:16:54.159Z,99620.47
2022-11-28T05:17:55.955Z,99614.38
2022-11-28T05:18:57.604Z,99602.91
2022-11-28T05:19:59.387Z,99611.09
2022-11-28T05:21:01.668Z,99614.88
2022-11-28T05:22:03.321Z,99614.56
2022-11-28T05:23:05.131Z,99605.06
2022-11-28T05:24:07.483Z,99611.78
2022-11-28T05:25:09.410Z,99601.59
2022-11-28T05:26:14.212Z,99603.91
2022-11-28T05:27:16.615Z,99601.28
2022-11-28T05:28:18.277Z,99609.16
2022-11-28T05:29:19.915Z,99609.94
2022-11-28T05:30:21.609Z,99609.97
2022-11-28T05:31:23.338Z,99599.78
2022-11-28T05:32:25.005Z,99601.28
2022-11-28T05:33:26.719Z,99603.56
2022-11-28T05:34:29.904Z,99600.13
2022-11-28T05:35:31.783Z,99579.78
2022-11-28T05:36:33.633Z,99598.16
2022-11-28T05:37:35.385Z,99600.78
2022-11-28T05:38:37.713Z,99605.38
2022-11-28T05:39:39.608Z,99608.00
2022-11-28T05:40:44.517Z,99609.00
2022-11-28T05:41:46.272Z,99607.34
2022-11-28T05:42:48.033Z,99593.91
2022-11-28T05:43:49.808Z,99603.41
2022-11-28T05:44:51.755Z,99598.66
2022-11-28T05:45:54.260Z,99599.97
2022-11-28T05:46:55.945Z,99615.06
2022-11-28T05:47:57.625Z,99607.50
2022-11-28T05:48:59.327Z,99614.56
2022-11-28T05:50:01.023Z,99601.28
2022-11-28T05:51:05.129Z,99612.28
2022-11-28T05:52:06.784Z,99616.22
2022-11-28T05:53:09.320Z,99609.66
2022-11-28T05:54:11.040Z,99606.53
2022-11-28T05:55:12.702Z,99613.28
2022-11-28T05:56:19.637Z,99609.00
2022-11-28T05:57:21.314Z,99607.38
2022-11-28T05:58:23.099Z,99615.56
2022-11-28T05:59:25.102Z,99614.91
2022-11-28T06:00:26.925Z,99616.22
2022-11-28T06:01:30.139Z,99617.19
2022-11-28T06:02:31.887Z,99611.63
2022-11-28T06:03:33.772Z,99607.84
2022-11-28T06:04:36.358Z,99616.22
2022-11-28T06:05:43.813Z,99604.06
2022-11-28T06:06:45.769Z,99611.97
2022-11-28T06:07:47.537Z,99619.00
2022-11-28T06:08:51.610Z,99610.94
2022-11-28T06:09:53.269Z,99616.88
2022-11-28T06:10:59.089Z,99619.31
2022-11-28T06:12:00.767Z,99610.13
2022-11-28T06:13:03.152Z,99623.91
2022-11-28T06:14:04.955Z,99620.16
2022-11-28T06:15:07.511Z,99620.16
2022-11-28T06:16:23.189Z,99630.13
2022-11-28T06:17:24.895Z,99624.88
2022-11-28T06:18:26.749Z,99629.16
2022-11-28T06:19:28.409Z,99631.94
2022-11-28T06:20:30.124Z,99610.81
2022-11-28T06:21:32.803Z,99630.81
2022-11-28T06:22:35.135Z,99631.47
2022-11-28T06:23:38.358Z,99626.53
2022-11-28T06:24:40.011Z,99626.53
2022-11-28T06:25:41.789Z,99629.00
2022-11-28T06:26:43.624Z,99630.66
2022-11-28T06:27:45.327Z,99622.44
2022-11-28T06:28:47.558Z,99625.25
2022-11-28T06:29:49.192Z,99618.16
2022-11-28T06:30:50.842Z,99619.97
2022-11-28T06:31:52.723Z,99624.91
2022-11-28T06:32:54.409Z,99613.06
2022-11-28T06:33:57.181Z,99621.78
2022-11-28T06:34:58.951Z,99613.56
2022-11-28T06:36:04.777Z,99620.13
2022-11-28T06:37:06.592Z,99624.06
2022-11-28T06:38:14.089Z,99632.91
2022-11-28T06:39:17.778Z,99627.69
2022-11-28T06:40:19.551Z,99628.66
2022-11-28T06:41:23.124Z,99633.25
2022-11-28T06:42:24.879Z,99628.81
2022-11-28T06:43:27.255Z,99629.94
2022-11-28T06:44:28.941Z,99623.38
2022-11-28T06:45:30.638Z,99621.41
2022-11-28T06:46:32.384Z,99625.00
2022-11-28T06:47:34.110Z,99627.28
2022-11-28T06:48:35.759Z,99614.00
2022-11-28T06:49:37.405Z,99627.28
2022-11-28T06:50:39.098Z,99634.50
2022-11-28T06:51:42.286Z,99627.28
2022-11-28T06:52:43.929Z,99624.50
2022-11-28T06:53:45.696Z,99612.22
2022-11-28T06:54:47.381Z,99629.91
2022-11-28T06:55:49.019Z,99619.41
2022-11-28T06:56:50.708Z,99615.72
2022-11-28T06:57:52.438Z,99627.41
2022-11-28T06:58:56.439Z,99624.25
2022-11-28T06:59:58.198Z,99626.53
2022-11-28T07:01:06.455Z,99610.09
2022-11-28T07:02:08.315Z,99625.50
2022-11-28T07:03:10.113Z,99620.59
2022-11-28T07:04:11.812Z,99619.91
2022-11-28T07:05:16.470Z,99620.72
2022-11-28T07:06:19.896Z,99627.72
2022-11-28T07:07:22.037Z,99613.56
2022-11-28T07:08:23.820Z,99628.03
2022-11-28T07:09:25.493Z,99627.41
2022-11-28T07:10:28.290Z,99628.41
2022-11-28T07:11:31.971Z,99623.53
2022-11-28T07:12:33.814Z,99627.78
2022-11-28T07:13:35.968Z,99623.34
2022-11-28T07:14:38.343Z,99623.03
2022-11-28T07:15:49.127Z,99616.81
2022-11-28T07:16:50.954Z,99619.44
2022-11-28T07:17:53.060Z,99612.06
2022-11-28T07:18:55.979Z,99622.75
2022-11-28T07:19:57.645Z,99619.31
2022-11-28T07:20:59.533Z,99610.94
2022-11-28T07:22:01.276Z,99613.38
2022-11-28T07:23:02.929Z,99603.03
2022-11-28T07:24:04.708Z,99614.38
2022-11-28T07:25:06.987Z,99614.22
2022-11-28T07:26:08.642Z,99611.13
2022-11-28T07:27:10.310Z,99615.06
2022-11-28T07:28:14.573Z,99619.00
2022-11-28T07:29:18.363Z,99606.88
2022-11-28T07:30:20.375Z,99609.06
2022-11-28T07:31:29.444Z,99610.19
2022-11-28T07:32:31.150Z,99608.84
2022-11-28T07:33:34.747Z,99611.31
2022-11-28T07:34:36.535Z,99605.38
2022-11-28T07:35:38.207Z,99613.75
2022-11-28T07:36:39.977Z,99600.97
2022-11-28T07:37:41.623Z,99602.59
2022-11-28T07:38:43.576Z,99604.25
2022-11-28T07:39:45.696Z,99612.78
2022-11-28T07:40:47.415Z,99612.44
2022-11-28T07:41:49.393Z,99595.72
2022-11-28T07:42:51.355Z,99610.47
2022-11-28T07:44:01.777Z,99610.88
2022-11-28T07:45:04.600Z,99610.19
2022-11-28T07:46:08.741Z,99612.50
2022-11-28T07:47:10.496Z,99604.66
2022-11-28T07:48:12.250Z,99604.16
2022-11-28T07:49:15.168Z,99604.97
2022-11-28T07:50:16.895Z,99596.47
2022-11-28T07:51:24.471Z,99612.00
2022-11-28T07:52:26.161Z,99610.56
2022-11-28T07:53:27.832Z,99607.25
2022-11-28T07:54:29.547Z,99606.06
2022-11-28T07:55:31.244Z,99608.25
2022-11-28T07:57:04.513Z,99604.34
2022-11-28T07:57:57.441Z,99602.34
2022-11-28T07:59:03.231Z,99605.31
2022-11-28T08:00:05.720Z,99609.28
2022-11-28T08:01:12.799Z,99608.94
2022-11-28T08:02:14.548Z,99597.81
2022-11-28T08:03:16.355Z,99596.63
2022-11-28T08:04:18.033Z,99595.34
2022-11-28T08:05:19.741Z,99597.47
2022-11-28T08:06:24.758Z,99596.31
2022-11-28T08:07:26.613Z,99601.56
2022-11-28T08:08:28.332Z,99602.59
2022-11-28T08:09:31.846Z,99588.31
2022-11-28T08:10:33.515Z,99602.09
2022-11-28T08:11:35.662Z,99589.78
2022-11-28T08:12:37.362Z,99592.56
2022-11-28T08:13:39.977Z,99592.56
2022-11-28T08:14:42.001Z,99596.16
2022-11-28T08:15:43.892Z,99597.50
2022-11-28T08:16:45.680Z,99588.50
2022-11-28T08:17:47.548Z,99590.59
2022-11-28T08:18:50.681Z,99580.44
2022-11-28T08:19:52.420Z,99590.97
2022-11-28T08:21:03.879Z,99589.63
2022-11-28T08:22:05.524Z,99594.41
2022-11-28T08:23:07.341Z,99584.88
2022-11-28T08:24:09.361Z,99590.44
2022-11-28T08:25:11.051Z,99592.75
2022-11-28T08:26:17.481Z,99599.16
2022-11-28T08:27:19.214Z,99594.75
2022-11-28T08:28:20.872Z,99592.59
2022-11-28T08:29:22.575Z,99589.63
2022-11-28T08:30:24.475Z,99580.47
2022-11-28T08:31:31.480Z,99593.56
2022-11-28T08:32:33.135Z,99587.34
2022-11-28T08:33:34.833Z,99582.06
2022-11-28T08:34:36.531Z,99589.16
2022-11-28T08:35:40.353Z,99591.28
2022-11-28T08:36:43.584Z,99594.56
2022-11-28T08:37:45.337Z,99594.25
2022-11-28T08:39:03.275Z,99597.84
2022-11-28T08:40:09.786Z,99595.56
2022-11-28T08:41:13.058Z,99588.50
2022-11-28T08:42:14.744Z,99590.16
2022-11-28T08:43:16.399Z,99579.00
2022-11-28T08:44:18.055Z,99586.19
2022-11-28T08:45:19.718Z,99588.00
2022-11-28T08:46:22.610Z,99589.31
2022-11-28T08:47:24.363Z,99592.09
2022-11-28T08:48:26.247Z,99593.44
2022-11-28T08:49:27.884Z,99588.50
2022-11-28T08:50:29.525Z,99581.78
2022-11-28T08:51:31.354Z,99581.47
2022-11-28T08:52:33.345Z,99583.41
2022-11-28T08:53:35.213Z,99584.72
2022-11-28T08:54:36.938Z,99584.41
2022-11-28T08:55:42.085Z,99585.03
2022-11-28T08:56:45.376Z,99577.34
2022-11-28T08:57:47.043Z,99572.09
2022-11-28T08:58:48.781Z,99577.34
2022-11-28T08:59:50.632Z,99571.59
2022-11-28T09:00:52.729Z,99577.81
2022-11-28T09:01:54.567Z,99578.31
2022-11-28T09:02:56.343Z,99572.91
2022-11-28T09:03:58.209Z,99574.22
2022-11-28T09:04:59.933Z,99565.69
2022-11-28T09:06:04.687Z,99571.06
2022-11-28T09:07:06.367Z,99551.41
2022-11-28T09:08:11.649Z,99571.69
2022-11-28T09:09:13.680Z,99563.00
2022-11-28T09:10:15.573Z,99562.50
2022-11-28T09:11:19.667Z,99563.66
2022-11-28T09:12:21.357Z,99562.00
2022-11-28T09:13:23.086Z,99564.00
2022-11-28T09:14:26.871Z,99561.19
2022-11-28T09:15:28.648Z,99550.88
2022-11-28T09:16:30.368Z,99541.00
2022-11-28T09:17:32.155Z,99554.13
2022-11-28T09:18:34.138Z,99556.44
2022-11-28T09:19:35.804Z,99552.81
2022-11-28T09:20:37.840Z,99545.09
2022-11-28T09:21:40.681Z,99557.75
2022-11-28T09:22:42.843Z,99556.09
2022-11-28T09:23:45.474Z,99539.72
2022-11-28T09:24:47.123Z,99550.84
2022-11-28T09:25:48.772Z,99549.53
2022-11-28T09:26:50.488Z,99548.06
2022-11-28T09:27:52.182Z,99543.63
2022-11-28T09:28:54.947Z,99545.75
2022-11-28T09:29:56.624Z,99547.53
2022-11-28T09:31:03.968Z,99538.66
2022-11-28T09:32:05.752Z,99533.13
2022-11-28T09:33:07.961Z,99538.50
2022-11-28T09:34:09.635Z,99533.25
2022-11-28T09:35:11.297Z,99543.41
2022-11-28T09:36:18.925Z,99543.91
2022-11-28T09:37:20.639Z,99532.41
2022-11-28T09:38:23.354Z,99525.50
2022-11-28T09:39:25.033Z,99532.22
2022-11-28T09:40:42.128Z,99532.69
2022-11-28T09:41:50.075Z,99526.94
2022-11-28T09:42:51.793Z,99526.41
2022-11-28T09:43:58.211Z,99526.38
2022-11-28T09:45:12.789Z,99529.50
2022-11-28T09:46:28.877Z,99520.78
2022-11-28T09:47:32.973Z,99511.56
2022-11-28T09:48:49.500Z,99516.47
2022-11-28T09:50:06.141Z,99504.03
2022-11-28T09:51:42.530Z,99502.84
2022-11-28T09:52:54.121Z,99509.88
2022-11-28T09:54:07.708Z,99507.44
2022-11-28T09:55:27.856Z,99509.53
2022-11-28T09:56:30.380Z,99503.00
2022-11-28T09:57:34.547Z,99508.03
2022-11-28T09:58:48.383Z,99509.75
2022-11-28T09:59:50.083Z,99509.72
2022-11-28T10:01:02.238Z,99500.72
2022-11-28T10:02:22.294Z,99509.56
2022-11-28T10:03:43.680Z,99503.81
2022-11-28T10:05:00.710Z,99503.94
2022-11-28T10:06:16.060Z,99500.72
2022-11-28T10:07:32.384Z,99495.09
2022-11-28T10:08:59.198Z,99503.47
2022-11-28T10:10:39.107Z,99491.38
2022-11-28T10:11:52.409Z,99491.72
2022-11-28T10:13:06.755Z,99502.00
2022-11-28T10:14:43.085Z,99496.56
2022-11-28T10:15:59.821Z,99502.66
2022-11-28T10:17:33.595Z,99492.94
2022-11-28T10:18:47.084Z,99491.88
2022-11-28T10:20:01.334Z,99481.19
2022-11-28T10:21:21.096Z,99487.41
2022-11-28T10:22:35.554Z,99482.16
2022-11-28T10:23:40.642Z,99486.59
2022-11-28T10:24:48.581Z,99483.59
2022-11-28T10:25:55.243Z,99484.53
2022-11-28T10:27:02.871Z,99480.72
2022-11-28T10:28:15.056Z,99477.88
2022-11-28T10:29:29.528Z,99472.84
2022-11-28T10:30:36.251Z,99478.00
2022-11-28T10:31:43.012Z,99478.47
2022-11-28T10:32:52.386Z,99475.38
2022-11-28T10:34:16.739Z,99465.94
2022-11-28T10:35:26.771Z,99475.72
2022-11-28T10:36:50.985Z,99466.66
2022-11-28T10:37:53.016Z,99466.38
2022-11-28T10:38:54.705Z,99461.06
2022-11-28T10:39:58.990Z,99460.66
2022-11-28T10:41:23.837Z,99467.22
2022-11-28T10:42:35.271Z,99463.13
2022-11-28T10:43:44.302Z,99460.31
2022-11-28T10:44:48.685Z,99457.69
2022-11-28T10:46:02.516Z,99464.06
2022-11-28T10:47:17.921Z,99464.78
2022-11-28T10:48:40.132Z,99460.78
2022-11-28T10:50:14.832Z,99458.50
2022-11-28T10:51:30.447Z,99452.78
2022-11-28T10:52:32.091Z,99452.59
2022-11-28T10:54:02.638Z,99455.88
2022-11-28T10:55:35.328Z,99451.59
2022-11-28T10:56:57.950Z,99450.25
2022-11-28T10:58:10.385Z,99443.22
2022-11-28T11:00:08.832Z,99443.31
2022-11-28T11:01:11.494Z,99445.56
2022-11-28T11:02:34.886Z,99433.88
2022-11-28T11:03:39.237Z,99434.69
2022-11-28T11:04:41.733Z,99444.16
2022-11-28T11:05:43.835Z,99440.13
2022-11-28T11:07:12.785Z,99445.03
2022-11-28T11:08:29.936Z,99447.56
2022-11-28T11:09:31.642Z,99440.03
2022-11-28T11:10:36.787Z,99444.66
2022-11-28T11:11:50.602Z,99441.75
2022-11-28T11:12:53.617Z,99440.94
2022-11-28T11:14:02.782Z,99436.13
2022-11-28T11:15:22.830Z,99433.31
2022-11-28T11:16:24.583Z,99431.50
2022-11-28T11:17:35.891Z,99429.91
2022-11-28T11:18:53.372Z,99430.66
2022-11-28T11:19:55.122Z,99437.16
2022-11-28T11:21:22.953Z,99428.53
2022-11-28T11:22:32.058Z,99427.72
2022-11-28T11:23:38.049Z,99428.53
2022-11-28T11:24:40.125Z,99428.34
2022-11-28T11:25:54.876Z,99430.41
2022-11-28T11:27:05.170Z,99425.31
2022-11-28T11:28:06.992Z,99427.13
2022-11-28T11:29:21.957Z,99414.72
2022-11-28T11:30:32.890Z,99418.63
2022-11-28T11:31:44.912Z,99420.34
2022-11-28T11:32:51.464Z,99411.25
2022-11-28T11:34:03.697Z,99415.91
2022-11-28T11:35:06.170Z,99408.34
2022-11-28T11:36:22.338Z,99410.16
2022-11-28T11:37:38.683Z,99408.03
2022-11-28T11:38:40.531Z,99410.66
2022-11-28T11:39:52.678Z,99405.38
2022-11-28T11:40:54.348Z,99411.66
2022-11-28T11:42:02.124Z,99412.66
2022-11-28T11:43:03.800Z,99403.41
2022-11-28T11:44:14.591Z,99407.88
2022-11-28T11:45:30.372Z,99401.72
2022-11-28T11:46:32.034Z,99404.72
2022-11-28T11:47:42.463Z,99407.53
2022-11-28T11:48:50.655Z,99403.44
2022-11-28T11:50:03.408Z,99403.84
2022-11-28T11:51:06.049Z,99402.75
2022-11-28T11:52:13.415Z,99400.03
2022-11-28T11:53:15.261Z,99401.22
2022-11-28T11:54:18.721Z,99407.38
2022-11-28T11:55:20.417Z,99408.94
2022-11-28T11:56:22.073Z,99402.03
2022-11-28T11:57:33.665Z,99403.03
2022-11-28T11:58:47.197Z,99398.13
2022-11-28T12:00:03.617Z,99408.38
2022-11-28T12:01:06.502Z,99407.38
2022-11-28T12:02:37.887Z,99408.94
2022-11-28T12:03:48.590Z,99404.31
2022-11-28T12:05:00.142Z,99408.56
2022-11-28T12:06:20.249Z,99405.56
2022-11-28T12:07:55.089Z,99405.56
2022-11-28T12:09:22.922Z,99395.78
2022-11-28T12:10:30.413Z,99399.56
2022-11-28T12:11:36.117Z,99391.97
2022-11-28T12:12:38.827Z,99397.47
2022-11-28T12:13:40.807Z,99403.22
2022-11-28T12:16:50.189Z,99403.94
2022-11-28T12:17:59.181Z,99404.38
2022-11-28T12:19:03.597Z,99403.13
2022-11-28T12:20:23.349Z,99405.13
2022-11-28T12:21:40.284Z,99400.50
2022-11-28T12:23:03.615Z,99404.31
2022-11-28T12:24:18.393Z,99397.59
2022-11-28T12:25:32.527Z,99398.75
2022-11-28T12:26:40.127Z,99396.59
2022-11-28T12:27:41.731Z,99404.31
2022-11-28T12:29:06.399Z,99394.78
2022-11-28T12:30:34.275Z,99405.75
2022-11-28T12:31:48.182Z,99403.56
2022-11-28T12:33:23.631Z,99411.22
2022-11-28T12:34:51.475Z,99399.84
2022-11-28T12:36:09.942Z,99411.19
2022-11-28T12:39:37.087Z,99409.16
2022-11-28T12:40:51.029Z,99414.94
2022-11-28T12:42:21.925Z,99415.75
2022-11-28T12:43:29.312Z,99421.03
2022-11-28T12:45:14.678Z,99414.94
2022-11-28T12:46:39.564Z,99418.78
2022-11-28T12:47:59.601Z,99415.50
2022-11-28T12:49:46.655Z,99415.22
2022-11-28T12:51:07.177Z,99411.03
2022-11-28T12:52:29.229Z,99405.63
2022-11-28T12:53:36.758Z,99402.19
2022-11-28T12:54:57.989Z,99405.72
2022-11-28T12:56:08.264Z,99406.25
2022-11-28T12:57:42.212Z,99391.78
2022-11-28T12:58:47.090Z,99401.22
2022-11-28T13:00:10.497Z,99403.84
2022-11-28T13:01:47.797Z,99403.13
2022-11-28T13:03:10.288Z,99409.63
2022-11-28T13:04:58.249Z,99415.25
2022-11-28T13:05:59.868Z,99417.25
2022-11-28T13:07:10.634Z,99420.03
2022-11-28T13:08:46.625Z,99413.16
2022-11-28T13:09:59.411Z,99421.22
2022-11-28T13:11:13.238Z,99417.31
2022-11-28T13:12:24.506Z,99412.22
2022-11-28T13:13:43.428Z,99415.84
2022-11-28T13:14:57.525Z,99411.59
2022-11-28T13:16:12.373Z,99405.91
2022-11-28T13:17:21.092Z,99415.44
2022-11-28T13:18:48.644Z,99424.00
2022-11-28T13:19:55.268Z,99418.91
2022-11-28T13:21:15.018Z,99425.63
2022-11-28T13:22:29.920Z,99428.56
2022-11-28T13:23:50.958Z,99420.97